sensor_id;sensor_type;location;lat;lon;timestamp;P1;durP1;ratioP1;P2;durP2;ratioP2
36061;SDS011;22123;52.412;20.970;2023-01-04T01:19:27;192.10;;;35.40;;
36061;SDS011;22123;52.412;20.970;2023-01-04T04:07:28;215.13;;;35.45;;
36061;SDS011;22123;52.412;20.970;2023-01-04T04:09:54;218.65;;;35.97;;
36061;SDS011;22123;52.412;20.970;2023-01-04T04:12:20;218.80;;;35.88;;
36061;SDS011;22123;52.412;20.970;2023-01-04T04:14:46;222.88;;;35.90;;
36061;SDS011;22123;52.412;20.970;2023-01-04T04:17:12;226.18;;;36.20;;
36061;SDS011;22123;52.412;20.970;2023-01-04T04:19:38;224.70;;;35.97;;
36061;SDS011;22123;52.412;20.970;2023-01-04T04:22:04;226.32;;;36.03;;
36061;SDS011;22123;52.412;20.970;2023-01-04T04:24:36;227.88;;;36.25;;
36061;SDS011;22123;52.412;20.970;2023-01-04T04:27:01;225.98;;;36.28;;
36061;SDS011;22123;52.412;20.970;2023-01-04T04:29:27;212.80;;;35.55;;
36061;SDS011;22123;52.412;20.970;2023-01-04T04:31:53;212.25;;;35.38;;
36061;SDS011;22123;52.412;20.970;2023-01-04T04:34:19;213.50;;;35.42;;
36061;SDS011;22123;52.412;20.970;2023-01-04T04:36:45;219.20;;;36.03;;
36061;SDS011;22123;52.412;20.970;2023-01-04T04:39:11;213.02;;;34.80;;
36061;SDS011;22123;52.412;20.970;2023-01-04T04:41:39;216.40;;;35.85;;
36061;SDS011;22123;52.412;20.970;2023-01-04T04:44:06;216.40;;;35.83;;
36061;SDS011;22123;52.412;20.970;2023-01-04T04:46:37;216.73;;;35.20;;
36061;SDS011;22123;52.412;20.970;2023-01-04T04:49:04;216.68;;;35.20;;
36061;SDS011;22123;52.412;20.970;2023-01-04T04:51:30;223.82;;;36.22;;
36061;SDS011;22123;52.412;20.970;2023-01-04T04:53:56;216.40;;;35.75;;
36061;SDS011;22123;52.412;20.970;2023-01-04T04:56:22;217.88;;;35.63;;
36061;SDS011;22123;52.412;20.970;2023-01-04T04:58:48;221.25;;;35.85;;
36061;SDS011;22123;52.412;20.970;2023-01-04T05:01:14;222.35;;;35.85;;
36061;SDS011;22123;52.412;20.970;2023-01-04T05:03:41;221.57;;;35.97;;
36061;SDS011;22123;52.412;20.970;2023-01-04T05:06:07;219.27;;;35.40;;
36061;SDS011;22123;52.412;20.970;2023-01-04T05:08:33;220.63;;;35.40;;
36061;SDS011;22123;52.412;20.970;2023-01-04T05:10:58;215.70;;;34.83;;
36061;SDS011;22123;52.412;20.970;2023-01-04T05:13:24;216.07;;;35.45;;
36061;SDS011;22123;52.412;20.970;2023-01-04T05:15:51;218.82;;;35.75;;
36061;SDS011;22123;52.412;20.970;2023-01-04T05:18:18;216.40;;;35.63;;
36061;SDS011;22123;52.412;20.970;2023-01-04T05:20:45;213.15;;;35.35;;
36061;SDS011;22123;52.412;20.970;2023-01-04T05:23:12;213.05;;;35.30;;
36061;SDS011;22123;52.412;20.970;2023-01-04T05:25:40;212.73;;;35.15;;
36061;SDS011;22123;52.412;20.970;2023-01-04T05:28:06;211.93;;;35.22;;
36061;SDS011;22123;52.412;20.970;2023-01-04T05:30:32;211.02;;;35.30;;
36061;SDS011;22123;52.412;20.970;2023-01-04T05:32:59;209.38;;;35.13;;
36061;SDS011;22123;52.412;20.970;2023-01-04T05:35:25;199.68;;;33.45;;
36061;SDS011;22123;52.412;20.970;2023-01-04T05:37:51;203.88;;;34.10;;
36061;SDS011;22123;52.412;20.970;2023-01-04T05:40:18;200.50;;;33.53;;
36061;SDS011;22123;52.412;20.970;2023-01-04T05:42:45;206.25;;;34.88;;
36061;SDS011;22123;52.412;20.970;2023-01-04T05:45:12;199.73;;;33.58;;
36061;SDS011;22123;52.412;20.970;2023-01-04T05:47:39;205.90;;;34.90;;
36061;SDS011;22123;52.412;20.970;2023-01-04T05:50:05;208.80;;;34.97;;
36061;SDS011;22123;52.412;20.970;2023-01-04T05:52:32;207.75;;;34.97;;
36061;SDS011;22123;52.412;20.970;2023-01-04T05:54:58;207.48;;;34.90;;
36061;SDS011;22123;52.412;20.970;2023-01-04T05:57:24;208.45;;;35.03;;
36061;SDS011;22123;52.412;20.970;2023-01-04T05:59:51;206.77;;;34.78;;
36061;SDS011;22123;52.412;20.970;2023-01-04T06:02:18;206.02;;;34.83;;
36061;SDS011;22123;52.412;20.970;2023-01-04T06:04:46;198.10;;;33.60;;
36061;SDS011;22123;52.412;20.970;2023-01-04T06:07:12;204.70;;;34.92;;
36061;SDS011;22123;52.412;20.970;2023-01-04T06:09:39;204.15;;;34.97;;
36061;SDS011;22123;52.412;20.970;2023-01-04T06:12:05;203.63;;;34.85;;
36061;SDS011;22123;52.412;20.970;2023-01-04T06:14:31;187.50;;;32.45;;
36061;SDS011;22123;52.412;20.970;2023-01-04T06:16:57;184.90;;;31.92;;
36061;SDS011;22123;52.412;20.970;2023-01-04T06:19:24;202.82;;;34.67;;
36061;SDS011;22123;52.412;20.970;2023-01-04T06:21:50;185.02;;;32.50;;
36061;SDS011;22123;52.412;20.970;2023-01-04T06:24:16;196.52;;;33.80;;
36061;SDS011;22123;52.412;20.970;2023-01-04T06:26:41;202.25;;;34.60;;
36061;SDS011;22123;52.412;20.970;2023-01-04T06:29:07;195.13;;;33.45;;
36061;SDS011;22123;52.412;20.970;2023-01-04T06:31:33;202.55;;;34.50;;
36061;SDS011;22123;52.412;20.970;2023-01-04T06:33:59;202.75;;;34.75;;
36061;SDS011;22123;52.412;20.970;2023-01-04T06:36:25;202.75;;;34.72;;
36061;SDS011;22123;52.412;20.970;2023-01-04T06:38:52;200.98;;;34.38;;
36061;SDS011;22123;52.412;20.970;2023-01-04T06:41:18;201.23;;;34.38;;
36061;SDS011;22123;52.412;20.970;2023-01-04T06:43:44;203.25;;;34.58;;
36061;SDS011;22123;52.412;20.970;2023-01-04T06:46:10;202.48;;;34.45;;
36061;SDS011;22123;52.412;20.970;2023-01-04T06:48:36;203.18;;;34.78;;
36061;SDS011;22123;52.412;20.970;2023-01-04T06:51:02;202.32;;;34.55;;
36061;SDS011;22123;52.412;20.970;2023-01-04T06:53:28;202.35;;;34.35;;
36061;SDS011;22123;52.412;20.970;2023-01-04T06:55:53;203.65;;;34.75;;
36061;SDS011;22123;52.412;20.970;2023-01-04T06:58:19;201.23;;;34.22;;
36061;SDS011;22123;52.412;20.970;2023-01-04T07:00:45;203.05;;;34.53;;
36061;SDS011;22123;52.412;20.970;2023-01-04T07:03:11;179.53;;;31.70;;
36061;SDS011;22123;52.412;20.970;2023-01-04T07:05:38;185.80;;;31.98;;
36061;SDS011;22123;52.412;20.970;2023-01-04T07:08:03;204.85;;;34.80;;
36061;SDS011;22123;52.412;20.970;2023-01-04T07:10:29;196.90;;;33.72;;
36061;SDS011;22123;52.412;20.970;2023-01-04T07:12:55;205.25;;;34.75;;
36061;SDS011;22123;52.412;20.970;2023-01-04T07:15:21;187.02;;;32.38;;
36061;SDS011;22123;52.412;20.970;2023-01-04T07:17:48;206.52;;;34.90;;
36061;SDS011;22123;52.412;20.970;2023-01-04T07:20:15;205.65;;;34.90;;
36061;SDS011;22123;52.412;20.970;2023-01-04T07:22:41;205.18;;;34.55;;
36061;SDS011;22123;52.412;20.970;2023-01-04T07:25:07;205.98;;;34.80;;
36061;SDS011;22123;52.412;20.970;2023-01-04T07:27:34;205.60;;;34.47;;
36061;SDS011;22123;52.412;20.970;2023-01-04T07:29:59;206.30;;;34.42;;
36061;SDS011;22123;52.412;20.970;2023-01-04T07:32:25;211.13;;;35.00;;
36061;SDS011;22123;52.412;20.970;2023-01-04T07:34:51;206.70;;;34.78;;
36061;SDS011;22123;52.412;20.970;2023-01-04T07:37:17;207.30;;;34.53;;
36061;SDS011;22123;52.412;20.970;2023-01-04T07:39:43;207.02;;;34.97;;
36061;SDS011;22123;52.412;20.970;2023-01-04T07:42:09;202.52;;;34.10;;
36061;SDS011;22123;52.412;20.970;2023-01-04T07:44:35;207.13;;;34.83;;
36061;SDS011;22123;52.412;20.970;2023-01-04T07:47:02;197.60;;;33.53;;
36061;SDS011;22123;52.412;20.970;2023-01-04T07:49:28;188.37;;;32.47;;
36061;SDS011;22123;52.412;20.970;2023-01-04T07:51:54;205.60;;;34.38;;
